createdAt,value
2023-04-16T00:02:03.061Z,99668.34
2023-04-16T00:04:30.126Z,99669.09
2023-04-16T00:06:56.991Z,99670.28
2023-04-16T00:09:23.936Z,99673.03
2023-04-16T00:11:50.736Z,99672.56
2023-04-16T00:14:17.528Z,99677.06
2023-04-16T00:16:44.604Z,99677.06
2023-04-16T00:19:11.666Z,99668.56
2023-04-16T00:21:38.965Z,99677.25
2023-04-16T00:24:05.927Z,99677.25
2023-04-16T00:26:32.863Z,99685.97
2023-04-16T00:28:59.758Z,99690.50
2023-04-16T00:31:34.365Z,99688.44
2023-04-16T00:34:04.198Z,99686.66
2023-04-16T00:36:31.005Z,99692.94
2023-04-16T00:38:58.032Z,99686.81
2023-04-16T00:41:25.022Z,99689.56
2023-04-16T00:43:51.890Z,99683.00
2023-04-16T00:46:21.488Z,99693.13
2023-04-16T00:48:48.935Z,99683.38
2023-04-16T00:51:16.470Z,99696.84
2023-04-16T00:53:44.732Z,99691.09
2023-04-16T00:56:12.107Z,99693.81
2023-04-16T00:58:40.091Z,99692.88
2023-04-16T01:01:07.062Z,99692.06
2023-04-16T01:03:44.223Z,99700.28
2023-04-16T01:06:11.880Z,99699.94
2023-04-16T01:08:39.087Z,99690.44
2023-04-16T01:11:06.624Z,99694.47
2023-04-16T01:13:35.171Z,99691.91
2023-04-16T01:16:02.472Z,99696.84
2023-04-16T01:18:29.506Z,99702.63
2023-04-16T01:20:56.577Z,99702.81
2023-04-16T01:23:23.414Z,99706.34
2023-04-16T01:25:50.221Z,99702.00
2023-04-16T01:28:17.356Z,99707.78
2023-04-16T01:30:44.366Z,99711.16
2023-04-16T01:33:21.571Z,99706.00
2023-04-16T01:35:48.410Z,99705.19
2023-04-16T01:38:16.592Z,99707.16
2023-04-16T01:40:43.450Z,99705.19
2023-04-16T01:43:10.609Z,99698.91
2023-04-16T01:45:39.690Z,99699.88
2023-04-16T01:48:07.846Z,99697.94
2023-04-16T01:50:35.842Z,99698.59
2023-04-16T01:53:05.101Z,99698.59
2023-04-16T01:55:33.662Z,99702.09
2023-04-16T01:58:00.525Z,99711.28
2023-04-16T02:00:31.731Z,99707.75
2023-04-16T02:02:59.478Z,99703.38
2023-04-16T02:05:28.449Z,99699.84
2023-04-16T02:07:58.096Z,99708.16
2023-04-16T02:10:25.025Z,99707.81
2023-04-16T02:12:52.500Z,99704.94
2023-04-16T02:15:19.523Z,99712.31
2023-04-16T02:17:47.975Z,99722.22
2023-04-16T02:20:14.950Z,99712.72
2023-04-16T02:22:48.796Z,99712.31
2023-04-16T02:25:18.744Z,99709.09
2023-04-16T02:27:48.269Z,99715.84
2023-04-16T02:30:28.346Z,99716.66
2023-04-16T02:32:55.466Z,99709.09
2023-04-16T02:35:22.490Z,99704.75
2023-04-16T02:37:49.780Z,99715.06
2023-04-16T02:40:16.843Z,99711.69
2023-04-16T02:42:43.722Z,99710.53
2023-04-16T02:45:11.676Z,99713.91
2023-04-16T02:47:38.583Z,99709.09
2023-04-16T02:50:06.317Z,99713.44
2023-04-16T02:52:33.804Z,99713.09
2023-04-16T02:55:00.911Z,99710.31
2023-04-16T02:57:27.787Z,99709.03
2023-04-16T02:59:54.561Z,99711.09
2023-04-16T03:02:21.839Z,99722.81
2023-04-16T03:04:48.820Z,99715.69
2023-04-16T03:07:15.989Z,99719.53
2023-04-16T03:09:42.962Z,99723.56
2023-04-16T03:12:09.796Z,99728.16
2023-04-16T03:14:36.661Z,99733.16
2023-04-16T03:17:03.501Z,99734.09
2023-04-16T03:19:30.406Z,99738.47
2023-04-16T03:21:57.255Z,99752.97
2023-04-16T03:24:24.034Z,99743.00
2023-04-16T03:26:50.914Z,99749.16
2023-04-16T03:29:18.552Z,99753.50
2023-04-16T03:31:45.345Z,99745.59
2023-04-16T03:34:12.287Z,99752.53
2023-04-16T03:36:40.790Z,99754.13
2023-04-16T03:39:07.953Z,99763.28
2023-04-16T03:41:36.349Z,99763.28
2023-04-16T03:44:03.580Z,99779.22
2023-04-16T03:46:30.557Z,99780.97
2023-04-16T03:48:57.793Z,99782.25
2023-04-16T03:51:27.937Z,99784.81
2023-04-16T03:53:54.844Z,99786.06
2023-04-16T03:56:22.038Z,99789.91
2023-04-16T03:58:50.337Z,99789.72
2023-04-16T04:01:17.098Z,99789.56
2023-04-16T04:03:44.097Z,99791.16
2023-04-16T04:06:13.286Z,99802.13
2023-04-16T04:08:40.323Z,99809.47
2023-04-16T04:11:07.559Z,99812.34
2023-04-16T04:13:35.776Z,99808.78
2023-04-16T04:16:04.135Z,99813.63
2023-04-16T04:18:32.088Z,99819.19
2023-04-16T04:20:59.959Z,99821.25
2023-04-16T04:23:29.866Z,99816.75
2023-04-16T04:25:56.909Z,99825.69
2023-04-16T04:28:24.750Z,99828.59
2023-04-16T04:30:51.568Z,99824.84
2023-04-16T04:33:18.937Z,99826.69
2023-04-16T04:35:47.439Z,99831.34
2023-04-16T04:38:19.753Z,99827.06
2023-04-16T04:40:47.015Z,99824.38
2023-04-16T04:43:15.404Z,99839.44
2023-04-16T04:45:42.466Z,99835.53
2023-04-16T04:48:09.317Z,99839.94
2023-04-16T04:50:36.884Z,99838.00
2023-04-16T04:53:09.860Z,99833.91
2023-04-16T04:55:38.528Z,99846.25
2023-04-16T04:58:06.421Z,99848.13
2023-04-16T05:00:34.471Z,99839.03
2023-04-16T05:03:06.015Z,99846.59
2023-04-16T05:05:33.399Z,99844.09
2023-04-16T05:08:00.293Z,99853.91
2023-04-16T05:10:27.833Z,99855.56
2023-04-16T05:12:54.710Z,99853.84
2023-04-16T05:15:21.631Z,99860.53
2023-04-16T05:17:48.516Z,99861.38
2023-04-16T05:20:16.158Z,99857.69
2023-04-16T05:22:43.029Z,99863.97
2023-04-16T05:25:10.161Z,99861.88
2023-04-16T05:27:38.427Z,99862.66
2023-04-16T05:30:06.138Z,99864.53
2023-04-16T05:32:34.653Z,99870.00
2023-04-16T05:35:01.785Z,99867.69
2023-04-16T05:37:30.134Z,99880.13
2023-04-16T05:39:56.903Z,99875.19
2023-04-16T05:42:23.797Z,99878.44
2023-04-16T05:44:52.449Z,99874.53
2023-04-16T05:47:19.391Z,99882.78
2023-04-16T05:49:46.184Z,99887.66
2023-04-16T05:52:13.163Z,99885.16
2023-04-16T05:54:39.910Z,99887.22
2023-04-16T05:57:06.781Z,99893.06
2023-04-16T05:59:34.558Z,99893.47
2023-04-16T06:02:01.423Z,99896.09
2023-04-16T06:04:28.445Z,99889.72
2023-04-16T06:06:55.686Z,99900.88
2023-04-16T06:09:22.475Z,99898.50
2023-04-16T06:11:50.479Z,99902.09
2023-04-16T06:14:17.609Z,99903.69
2023-04-16T06:16:44.546Z,99914.44
2023-04-16T06:19:11.649Z,99915.28
2023-04-16T06:21:38.997Z,99916.44
2023-04-16T06:24:06.251Z,99917.22
2023-04-16T06:26:33.109Z,99920.81
2023-04-16T06:28:59.924Z,99926.44
2023-04-16T06:31:30.784Z,99925.44
2023-04-16T06:33:57.926Z,99928.78
2023-04-16T06:36:24.824Z,99924.75
2023-04-16T06:38:51.628Z,99923.97
2023-04-16T06:41:20.000Z,99918.81
2023-04-16T06:43:46.859Z,99916.84
2023-04-16T06:46:13.991Z,99916.84
2023-04-16T06:48:41.047Z,99920.59
2023-04-16T06:51:08.067Z,99924.41
2023-04-16T06:53:35.007Z,99923.41
2023-04-16T06:56:02.365Z,99925.63
2023-04-16T06:58:29.675Z,99922.59
2023-04-16T07:00:56.655Z,99928.94
2023-04-16T07:03:23.763Z,99934.13
2023-04-16T07:05:50.758Z,99929.31
2023-04-16T07:08:17.516Z,99931.66
2023-04-16T07:10:44.405Z,99933.94
2023-04-16T07:13:11.358Z,99935.94
2023-04-16T07:15:38.208Z,99936.91
2023-04-16T07:18:05.073Z,99938.75
2023-04-16T07:20:32.214Z,99937.19
2023-04-16T07:22:59.584Z,99945.78
2023-04-16T07:25:27.009Z,99945.63
2023-04-16T07:27:53.860Z,99945.00
2023-04-16T07:30:20.815Z,99946.81
2023-04-16T07:32:47.767Z,99961.22
2023-04-16T07:35:14.704Z,99959.59
2023-04-16T07:37:41.586Z,99963.97
2023-04-16T07:40:09.132Z,99968.00
2023-04-16T07:42:36.344Z,99966.13
2023-04-16T07:45:03.241Z,99972.88
2023-04-16T07:47:31.623Z,99966.84
2023-04-16T07:49:58.485Z,99962.25
2023-04-16T07:52:25.502Z,99969.25
2023-04-16T07:54:52.497Z,99967.72
2023-04-16T07:57:19.451Z,99968.34
2023-04-16T07:59:46.287Z,99976.19
2023-04-16T08:02:16.713Z,99966.28
2023-04-16T08:04:44.662Z,99974.44
2023-04-16T08:07:11.997Z,99971.22
2023-04-16T08:09:51.700Z,99967.28
2023-04-16T08:12:18.814Z,99970.94
2023-04-16T08:14:45.986Z,99976.19
2023-04-16T08:17:13.625Z,99972.66
2023-04-16T08:19:40.657Z,99980.00
2023-04-16T08:22:07.582Z,99974.78
2023-04-16T08:24:34.380Z,99979.09
2023-04-16T08:27:11.569Z,99982.91
2023-04-16T08:29:46.142Z,99985.06
2023-04-16T08:32:12.998Z,99984.59
2023-04-16T08:34:39.885Z,99982.78
2023-04-16T08:37:06.710Z,99984.81
2023-04-16T08:39:35.247Z,99988.22
2023-04-16T08:42:04.822Z,99979.63
2023-04-16T08:44:42.873Z,99988.34
2023-04-16T08:47:13.728Z,99984.56
2023-04-16T08:49:46.290Z,99992.50
2023-04-16T08:52:22.412Z,99989.81
2023-04-16T08:55:23.913Z,99993.00
2023-04-16T08:57:59.757Z,99990.84
2023-04-16T09:00:26.747Z,99999.81
2023-04-16T09:02:54.426Z,99995.88
2023-04-16T09:05:25.566Z,99999.91
2023-04-16T09:07:54.602Z,99996.84
2023-04-16T09:10:21.922Z,100001.47
2023-04-16T09:12:49.123Z,100005.84
2023-04-16T09:15:16.097Z,100003.06
2023-04-16T09:17:43.073Z,100007.56
2023-04-16T09:20:12.081Z,100000.97
2023-04-16T09:22:40.535Z,100003.28
2023-04-16T09:25:08.495Z,100002.66
2023-04-16T09:27:36.287Z,100011.09
2023-04-16T09:30:30.998Z,100015.50
2023-04-16T09:33:22.573Z,100018.34
2023-04-16T09:35:53.540Z,100017.19
2023-04-16T09:38:21.362Z,100010.63
2023-04-16T09:40:48.340Z,100015.31
2023-04-16T09:43:18.406Z,100021.63
2023-04-16T09:45:55.263Z,100025.00
2023-04-16T09:48:32.741Z,100030.50
2023-04-16T09:51:02.320Z,100031.47
2023-04-16T09:53:32.576Z,100027.91
2023-04-16T09:56:06.134Z,100034.72
2023-04-16T09:58:36.298Z,100029.06
2023-04-16T10:01:11.209Z,100027.50
2023-04-16T10:03:40.698Z,100028.72
2023-04-16T10:06:09.409Z,100029.06
2023-04-16T10:08:36.647Z,100026.28
2023-04-16T10:11:03.691Z,100029.25
2023-04-16T10:13:31.969Z,100026.13
2023-04-16T10:16:00.891Z,100025.66
2023-04-16T10:18:29.055Z,100026.06
2023-04-16T10:20:57.470Z,100025.31
2023-04-16T10:23:26.433Z,100021.47
2023-04-16T10:25:57.338Z,100023.75
2023-04-16T10:28:29.124Z,100022.50
2023-04-16T10:30:57.929Z,100020.19
2023-04-16T10:33:31.328Z,100032.81
2023-04-16T10:36:17.719Z,100028.47
2023-04-16T10:38:54.844Z,100024.63
2023-04-16T10:41:22.095Z,100028.25
2023-04-16T10:43:50.348Z,100023.53
2023-04-16T10:46:40.707Z,100028.75
2023-04-16T10:49:23.609Z,100031.84
2023-04-16T10:51:58.376Z,100018.03
2023-04-16T10:54:32.581Z,100018.16
2023-04-16T10:57:04.448Z,100016.06
2023-04-16T10:59:34.945Z,100011.63
2023-04-16T11:02:13.554Z,100015.91
2023-04-16T11:04:45.151Z,100016.13
2023-04-16T11:07:15.634Z,100023.28
2023-04-16T11:10:06.834Z,100019.38
2023-04-16T11:12:47.305Z,100018.91
2023-04-16T11:15:20.492Z,100020.84
2023-04-16T11:17:48.389Z,100015.00
2023-04-16T11:20:22.910Z,100026.72
2023-04-16T11:22:52.705Z,100012.94
2023-04-16T11:25:30.304Z,100024.25
2023-04-16T11:28:01.438Z,100022.94
2023-04-16T11:30:36.874Z,100030.00
2023-04-16T11:33:14.261Z,100025.59
2023-04-16T11:35:41.753Z,100027.25
2023-04-16T11:38:09.332Z,100019.06
2023-04-16T11:40:36.502Z,100020.84
2023-04-16T11:43:05.055Z,100032.28
2023-04-16T11:45:32.105Z,100025.28
2023-04-16T11:48:00.177Z,100030.81
2023-04-16T11:50:28.785Z,100028.31
2023-04-16T11:52:58.009Z,100024.41
2023-04-16T11:55:27.595Z,100027.19
2023-04-16T11:57:54.607Z,100029.34
2023-04-16T12:00:24.762Z,100031.16
2023-04-16T12:02:53.929Z,100026.19
2023-04-16T12:05:38.824Z,100028.91
2023-04-16T12:08:11.820Z,100028.91
2023-04-16T12:10:56.117Z,100035.63
2023-04-16T12:13:24.613Z,100025.84
2023-04-16T12:15:53.773Z,100030.28
2023-04-16T12:18:23.150Z,100024.00
2023-04-16T12:20:53.343Z,100023.22
2023-04-16T12:23:27.863Z,100020.22
2023-04-16T12:25:55.228Z,100018.34
2023-04-16T12:28:29.574Z,100015.91
2023-04-16T12:30:57.072Z,100019.00
2023-04-16T12:33:24.134Z,100012.53
2023-04-16T12:35:51.131Z,100014.59
2023-04-16T12:38:18.450Z,99999.06
2023-04-16T12:40:46.778Z,100011.09
2023-04-16T12:43:14.110Z,100005.16
2023-04-16T12:45:41.657Z,100008.00
2023-04-16T12:48:08.750Z,100004.94
2023-04-16T12:50:39.814Z,99998.41
2023-04-16T12:53:06.870Z,100004.19
2023-04-16T12:55:33.738Z,100002.75
2023-04-16T12:58:01.045Z,99998.91
2023-04-16T13:00:27.981Z,100004.13
2023-04-16T13:02:54.910Z,100002.06
2023-04-16T13:05:21.777Z,100002.31
2023-04-16T13:07:48.609Z,100001.41
2023-04-16T13:10:15.585Z,100003.09
2023-04-16T13:12:42.443Z,99998.66
2023-04-16T13:15:10.266Z,99997.41
2023-04-16T13:17:37.627Z,99995.50
2023-04-16T13:20:04.957Z,100000.66
2023-04-16T13:22:32.383Z,99990.78
2023-04-16T13:24:59.277Z,99998.41
2023-04-16T13:27:26.309Z,99990.91
2023-04-16T13:29:53.223Z,100001.22
2023-04-16T13:32:20.450Z,99997.78
2023-04-16T13:34:47.951Z,99997.72
2023-04-16T13:37:14.830Z,100001.53
2023-04-16T13:39:42.691Z,100005.03
2023-04-16T13:42:12.426Z,99998.63
2023-04-16T13:44:39.282Z,99998.34
2023-04-16T13:47:06.335Z,99992.06
2023-04-16T13:49:36.149Z,99996.75
2023-04-16T13:52:03.328Z,99994.47
2023-04-16T13:54:32.023Z,100007.97
2023-04-16T13:56:58.900Z,99997.06
2023-04-16T13:59:26.624Z,99995.75
2023-04-16T14:01:53.500Z,99996.53
2023-04-16T14:04:22.520Z,99995.59
2023-04-16T14:06:51.012Z,99995.66
2023-04-16T14:09:17.992Z,100001.09
2023-04-16T14:11:44.902Z,99999.34
2023-04-16T14:14:12.429Z,99994.53
2023-04-16T14:16:39.943Z,99993.69
2023-04-16T14:19:06.747Z,99994.06
2023-04-16T14:21:33.739Z,99993.13
2023-04-16T14:24:00.725Z,99993.22
2023-04-16T14:26:27.772Z,99997.69
2023-04-16T14:28:54.908Z,99987.94
2023-04-16T14:31:21.855Z,99991.78
2023-04-16T14:33:49.066Z,99984.16
2023-04-16T14:36:17.607Z,99985.56
2023-04-16T14:38:44.605Z,99987.50
2023-04-16T14:41:15.805Z,99989.53
2023-04-16T14:43:44.394Z,99982.72
2023-04-16T14:46:17.819Z,99984.31
2023-04-16T14:48:45.886Z,99981.44
2023-04-16T14:51:12.993Z,99985.56
2023-04-16T14:53:40.963Z,99985.13
2023-04-16T14:56:09.392Z,99975.50
2023-04-16T14:58:39.084Z,99981.53
2023-04-16T15:01:06.231Z,99977.00
2023-04-16T15:03:33.556Z,99982.41
2023-04-16T15:06:00.721Z,99979.44
2023-04-16T15:08:28.014Z,99984.09
2023-04-16T15:10:55.055Z,99978.81
2023-04-16T15:13:22.801Z,99966.50
2023-04-16T15:15:50.167Z,99973.19
2023-04-16T15:18:18.994Z,99976.47
2023-04-16T15:20:45.768Z,99978.25
2023-04-16T15:23:12.630Z,99979.97
2023-04-16T15:25:39.457Z,99987.94
2023-04-16T15:28:06.710Z,99982.47
2023-04-16T15:30:33.745Z,99984.59
2023-04-16T15:33:00.866Z,99982.22
2023-04-16T15:35:27.778Z,99981.94
2023-04-16T15:37:57.471Z,99986.44
2023-04-16T15:40:26.982Z,99983.25
2023-04-16T15:42:55.239Z,99977.78
2023-04-16T15:45:22.586Z,99989.38
2023-04-16T15:47:51.493Z,99981.53
2023-04-16T15:50:20.766Z,99978.56
2023-04-16T15:52:49.482Z,99980.50
2023-04-16T15:55:18.541Z,99977.78
2023-04-16T15:57:46.845Z,99975.78
2023-04-16T16:00:15.639Z,99982.03
2023-04-16T16:02:44.205Z,99976.88
2023-04-16T16:05:13.798Z,99976.06
2023-04-16T16:07:44.619Z,99978.25
2023-04-16T16:10:13.274Z,99967.03
2023-04-16T16:12:41.589Z,99975.53
2023-04-16T16:15:11.068Z,99967.59
2023-04-16T16:17:38.725Z,99966.00
2023-04-16T16:20:11.312Z,99969.19
2023-04-16T16:22:38.824Z,99968.22
2023-04-16T16:25:08.494Z,99976.25
2023-04-16T16:27:36.548Z,99974.25
2023-04-16T16:30:06.641Z,99984.47
2023-04-16T16:32:34.175Z,99984.47
2023-04-16T16:35:01.100Z,99980.13
2023-04-16T16:37:29.447Z,99974.47
2023-04-16T16:39:56.498Z,99977.56
2023-04-16T16:42:23.339Z,99978.34
2023-04-16T16:44:50.688Z,99977.00
2023-04-16T16:47:17.869Z,99982.06
2023-04-16T16:49:46.430Z,99980.06
2023-04-16T16:52:13.315Z,99986.09
2023-04-16T16:54:40.823Z,99984.94
2023-04-16T16:57:08.428Z,99988.53
2023-04-16T16:59:35.310Z,99984.38
2023-04-16T17:02:02.660Z,99983.41
2023-04-16T17:04:29.615Z,99984.66
2023-04-16T17:06:56.709Z,99984.84
2023-04-16T17:09:23.548Z,99982.50
2023-04-16T17:11:50.423Z,99986.94
2023-04-16T17:14:17.351Z,99983.19
2023-04-16T17:16:49.975Z,99988.78
2023-04-16T17:19:17.981Z,99979.66
2023-04-16T17:21:44.956Z,99981.00
2023-04-16T17:24:11.966Z,99970.03
2023-04-16T17:26:40.974Z,99976.28
2023-04-16T17:29:07.977Z,99971.28
2023-04-16T17:31:34.834Z,99974.25
2023-04-16T17:34:05.841Z,99978.88
2023-04-16T17:36:32.814Z,99974.09
2023-04-16T17:39:00.769Z,99981.88
2023-04-16T17:41:27.577Z,99977.91
2023-04-16T17:43:58.209Z,99994.31
2023-04-16T17:46:25.060Z,99983.69
2023-04-16T17:48:51.954Z,99985.28
2023-04-16T17:51:18.850Z,99988.91
2023-04-16T17:53:46.297Z,99999.28
2023-04-16T17:56:14.023Z,99996.34
2023-04-16T17:58:41.007Z,99997.94
2023-04-16T18:01:07.880Z,99996.91
2023-04-16T18:03:35.130Z,99992.69
2023-04-16T18:06:02.107Z,100001.25
2023-04-16T18:08:29.023Z,99998.94
2023-04-16T18:10:57.180Z,100000.53
2023-04-16T18:13:24.784Z,100002.53
2023-04-16T18:15:53.006Z,100009.34
2023-04-16T18:18:21.330Z,100010.13
2023-04-16T18:20:49.244Z,100004.53
2023-04-16T18:23:16.150Z,100000.13
2023-04-16T18:25:43.211Z,100010.94
2023-04-16T18:28:13.678Z,100013.75
2023-04-16T18:30:41.171Z,100015.97
2023-04-16T18:33:42.833Z,100014.97
2023-04-16T18:36:04.713Z,100016.56
2023-04-16T18:38:31.639Z,100023.38
2023-04-16T18:40:58.997Z,100019.97
2023-04-16T18:43:26.213Z,100022.38
2023-04-16T18:45:53.571Z,100015.56
2023-04-16T18:48:20.533Z,100017.38
2023-04-16T18:50:50.418Z,100021.78
2023-04-16T18:53:18.681Z,100020.59
2023-04-16T18:55:51.035Z,100020.81
2023-04-16T18:58:21.479Z,100021.03
2023-04-16T19:00:54.675Z,100018.22
2023-04-16T19:03:22.651Z,100031.47
2023-04-16T19:05:49.505Z,100027.44
2023-04-16T19:08:16.288Z,100025.63
2023-04-16T19:10:45.754Z,100024.63
2023-04-16T19:16:09.532Z,100026.63
2023-04-16T19:18:42.291Z,100023.69
2023-04-16T19:21:14.286Z,100030.66
2023-04-16T19:23:43.797Z,100030.47
2023-04-16T19:26:16.489Z,100032.69
2023-04-16T19:28:49.969Z,100021.88
2023-04-16T19:31:20.562Z,100027.69
2023-04-16T19:33:47.541Z,100028.69
2023-04-16T19:36:14.450Z,100027.06
2023-04-16T19:38:41.242Z,100029.09
2023-04-16T19:41:10.352Z,100026.09
2023-04-16T19:43:39.408Z,100029.91
2023-04-16T19:46:07.827Z,100027.69
2023-04-16T19:48:37.211Z,100037.28
2023-04-16T19:51:07.187Z,100035.09
2023-04-16T19:53:35.903Z,100031.13
2023-04-16T19:56:02.803Z,100032.72
2023-04-16T19:58:37.867Z,100030.72
2023-04-16T20:01:10.557Z,100034.50
2023-04-16T20:03:40.553Z,100035.09
2023-04-16T20:06:09.738Z,100035.91
2023-04-16T20:08:40.846Z,100033.91
2023-04-16T20:11:12.177Z,100036.31
2023-04-16T20:13:39.201Z,100035.69
2023-04-16T20:16:08.569Z,100044.28
2023-04-16T20:18:41.320Z,100040.09
2023-04-16T20:21:09.435Z,100038.66
2023-04-16T20:23:41.619Z,100019.53
2023-04-16T20:26:13.444Z,100032.66
2023-04-16T20:28:40.265Z,100023.91
2023-04-16T20:31:07.251Z,100022.28
2023-04-16T20:33:34.064Z,100024.91
2023-04-16T20:36:01.785Z,100012.91
2023-04-16T20:38:32.577Z,100017.34
2023-04-16T20:41:20.411Z,100029.28
2023-04-16T20:43:50.102Z,100014.13
2023-04-16T20:46:17.798Z,100028.72
2023-04-16T20:48:45.311Z,100015.50
2023-04-16T20:51:16.421Z,100015.50
2023-04-16T20:53:45.857Z,100015.91
2023-04-16T20:56:14.990Z,100016.31
2023-04-16T20:58:44.631Z,100027.50
2023-04-16T21:01:14.531Z,100017.34
2023-04-16T21:03:52.176Z,100009.94
2023-04-16T21:06:22.565Z,100013.91
2023-04-16T21:08:49.444Z,100023.88
2023-04-16T21:11:16.484Z,100024.88
2023-04-16T21:13:43.304Z,100021.47
2023-04-16T21:16:14.253Z,100016.28
2023-04-16T21:18:41.730Z,100022.09
2023-04-16T21:21:10.974Z,100010.91
2023-04-16T21:23:37.821Z,100012.69
2023-04-16T21:26:04.610Z,100010.25
2023-04-16T21:28:31.430Z,100020.25
2023-04-16T21:31:00.892Z,100019.03
2023-04-16T21:33:27.744Z,100003.06
2023-04-16T21:35:54.654Z,100002.69
2023-04-16T21:38:22.230Z,99998.47
2023-04-16T21:40:51.298Z,100005.03
2023-04-16T21:43:18.365Z,99998.66
2023-04-16T21:45:45.396Z,99992.88
2023-04-16T21:48:12.630Z,99995.25
2023-04-16T21:50:40.090Z,99999.00
2023-04-16T21:53:06.983Z,100002.22
2023-04-16T21:55:34.930Z,100007.00
2023-04-16T21:58:03.090Z,100003.59
2023-04-16T22:00:30.044Z,100004.16
2023-04-16T22:03:00.149Z,100000.78
2023-04-16T22:05:27.343Z,100007.91
2023-04-16T22:07:54.254Z,100007.91
2023-04-16T22:10:21.702Z,100003.13
2023-04-16T22:12:48.595Z,100014.91
2023-04-16T22:15:15.565Z,100002.53
2023-04-16T22:17:42.488Z,99998.19
2023-04-16T22:20:12.300Z,99992.56
2023-04-16T22:22:39.931Z,99996.50
2023-04-16T22:25:07.188Z,99993.31
2023-04-16T22:27:34.485Z,99991.72
2023-04-16T22:30:01.855Z,99994.31
2023-04-16T22:32:33.287Z,99986.91
2023-04-16T22:35:00.787Z,99987.06
2023-04-16T22:37:28.105Z,99989.50
2023-04-16T22:39:55.008Z,99987.28
2023-04-16T22:42:21.873Z,99981.31
2023-04-16T22:44:48.771Z,99981.50
2023-04-16T22:47:15.692Z,99970.53
2023-04-16T22:49:42.923Z,99976.50
2023-04-16T22:52:09.713Z,99970.53
2023-04-16T22:54:36.520Z,99981.31
2023-04-16T22:57:03.318Z,99965.94
2023-04-16T22:59:31.122Z,99964.16
2023-04-16T23:01:58.213Z,99967.91
2023-04-16T23:04:25.726Z,99960.91
2023-04-16T23:06:52.555Z,99957.91
2023-04-16T23:09:20.587Z,99956.13
2023-04-16T23:11:47.391Z,99961.31
2023-04-16T23:14:16.733Z,99958.53
2023-04-16T23:16:44.127Z,99956.91
2023-04-16T23:19:14.953Z,99953.56
2023-04-16T23:21:42.615Z,99946.16
2023-04-16T23:24:09.812Z,99957.78
2023-04-16T23:26:37.213Z,99944.22
2023-04-16T23:29:04.358Z,99954.22
2023-04-16T23:31:31.340Z,99948.19
2023-04-16T23:33:58.877Z,99950.22
2023-04-16T23:36:27.539Z,99956.56
2023-04-16T23:38:54.508Z,99942.22
2023-04-16T23:41:23.693Z,99942.44
2023-04-16T23:43:50.752Z,99929.66
2023-04-16T23:46:17.644Z,99922.47
2023-04-16T23:48:44.781Z,99927.47
2023-04-16T23:51:11.692Z,99930.66
2023-04-16T23:53:40.735Z,99932.25
2023-04-16T23:56:11.165Z,99928.03
2023-04-16T23:58:38.369Z,99933.41
